Time;durP1;ratioP1;P1;durP2;ratioP2;P2;SDS_P1;SDS_P2;PMS_P1;PMS_P2;Temp;Humidity;BMP_temperature;BMP_pressure;BME280_temperature;BME280_humidity;BME280_pressure;Samples;Min_cycle;Max_cycle;Signal;HPM_P1;HPM_P2
2021/01/08 00:00:39;;;;;;;11.38;7.28;;;;;;;2.23;82.68;100050.66;5004921;28;20065;-84
2021/01/08 00:03:05;;;;;;;14.48;7.82;;;;;;;2.25;82.07;100046.25;5003004;28;20046;-85
2021/01/08 00:05:32;;;;;;;14.30;7.45;;;;;;;2.19;82.68;100055.09;4994090;28;20446;-85
2021/01/08 00:07:58;;;;;;;15.98;8.00;;;;;;;2.13;82.73;100047.34;5002091;28;20497;-85
2021/01/08 00:10:25;;;;;;;14.30;7.95;;;;;;;2.10;83.27;100044.78;4999893;28;20509;-84
2021/01/08 00:12:51;;;;;;;13.35;7.82;;;;;;;2.09;83.92;100051.78;4996988;28;20050;-84
2021/01/08 00:15:17;;;;;;;14.25;7.95;;;;;;;2.13;82.53;100042.13;5001253;28;20691;-84
2021/01/08 00:17:44;;;;;;;15.35;8.05;;;;;;;2.11;82.59;100043.91;5002852;28;20070;-84
2021/01/08 00:20:12;;;;;;;11.75;6.88;;;;;;;2.03;82.69;100041.44;5003209;28;20097;-84
2021/01/08 00:22:38;;;;;;;15.18;7.72;;;;;;;1.99;82.61;100038.91;5009508;28;20074;-84
2021/01/08 00:25:05;;;;;;;12.18;8.05;;;;;;;2.02;83.11;100036.25;5006837;28;20062;-85
2021/01/08 00:27:31;;;;;;;16.25;7.72;;;;;;;1.99;82.60;100028.47;5012816;28;20069;-84
2021/01/08 00:29:58;;;;;;;14.57;8.05;;;;;;;2.02;82.43;100036.25;5012515;28;20054;-85
2021/01/08 00:32:24;;;;;;;14.27;7.45;;;;;;;2.02;82.28;100038.88;5002049;28;20065;-85
2021/01/08 00:34:51;;;;;;;14.25;7.70;;;;;;;1.98;82.52;100035.44;5003262;28;20043;-84
2021/01/08 00:37:17;;;;;;;14.48;7.10;;;;;;;1.95;83.00;100034.63;4996278;28;20054;-84
2021/01/08 00:39:44;;;;;;;13.45;7.95;;;;;;;1.96;83.08;100029.38;4995174;28;20057;-84
2021/01/08 00:42:11;;;;;;;15.63;8.05;;;;;;;1.97;83.03;100038.94;4993382;28;20109;-84
2021/01/08 00:44:37;;;;;;;13.20;7.63;;;;;;;1.94;82.81;100027.69;5000979;28;20046;-85
2021/01/08 00:47:07;;;;;;;14.68;7.60;;;;;;;1.91;82.51;100030.34;4987484;28;20064;-84
2021/01/08 00:49:35;;;;;;;14.40;7.93;;;;;;;1.90;82.68;100033.84;4995622;28;20399;-84
2021/01/08 00:52:04;;;;;;;14.15;7.88;;;;;;;1.95;82.87;100032.00;4996815;28;20149;-84
2021/01/08 00:54:31;;;;;;;15.73;8.18;;;;;;;2.00;82.15;100030.19;4992180;28;20050;-84
2021/01/08 00:56:57;;;;;;;14.95;7.93;;;;;;;2.01;81.83;100030.16;4995089;28;20054;-84
2021/01/08 00:59:24;;;;;;;12.60;7.38;;;;;;;1.94;81.88;100031.16;5003355;28;20062;-84
2021/01/08 01:01:50;;;;;;;12.60;7.15;;;;;;;2.04;81.18;100031.88;5006641;28;20045;-84
2021/01/08 01:04:17;;;;;;;12.57;6.90;;;;;;;1.99;81.35;100029.34;5010144;28;20537;-84
2021/01/08 01:06:43;;;;;;;12.80;6.88;;;;;;;2.07;81.49;100034.41;4986490;28;20054;-85
2021/01/08 01:09:11;;;;;;;12.23;7.13;;;;;;;2.06;80.97;100030.94;5000758;28;20109;-84
2021/01/08 01:11:38;;;;;;;13.48;7.32;;;;;;;2.02;81.24;100037.13;4997556;28;20517;-85
2021/01/08 01:14:04;;;;;;;16.40;7.25;;;;;;;1.97;81.93;100030.25;5004121;28;20054;-85
2021/01/08 01:16:31;;;;;;;14.27;7.55;;;;;;;1.95;82.08;100032.88;5012174;28;20056;-85
2021/01/08 01:18:58;;;;;;;12.40;7.30;;;;;;;1.93;82.00;100034.66;5017717;28;20061;-85
2021/01/08 01:21:27;;;;;;;13.27;7.45;;;;;;;1.95;82.54;100042.47;5017075;28;20034;-84
2021/01/08 01:23:54;;;;;;;13.57;7.55;;;;;;;1.92;82.41;100037.28;5013993;28;20042;-84
2021/01/08 01:26:22;;;;;;;13.00;6.90;;;;;;;1.90;82.44;100041.66;5013742;28;20102;-85
2021/01/08 01:28:49;;;;;;;11.82;7.30;;;;;;;1.88;82.38;100038.25;5020506;28;20045;-85
2021/01/08 01:31:15;;;;;;;13.00;7.45;;;;;;;1.81;82.63;100031.41;5001433;28;20062;-84
2021/01/08 01:33:42;;;;;;;12.10;6.95;;;;;;;1.86;82.41;100043.50;5002882;28;20061;-85
2021/01/08 01:36:09;;;;;;;12.45;7.25;;;;;;;1.92;82.29;100042.50;5001151;28;20054;-85
2021/01/08 01:38:37;;;;;;;16.60;7.43;;;;;;;1.91;82.64;100046.00;5010705;28;20046;-85
2021/01/08 01:41:04;;;;;;;14.55;6.97;;;;;;;1.93;82.21;100047.72;5013181;28;20026;-83
2021/01/08 01:43:32;;;;;;;13.68;7.50;;;;;;;1.83;83.13;100043.53;4998430;28;20030;-84
2021/01/08 01:46:00;;;;;;;15.15;7.80;;;;;;;1.81;83.98;100049.66;5004844;28;20077;-84
2021/01/08 01:48:28;;;;;;;12.93;7.20;;;;;;;1.83;83.64;100045.28;5011007;28;20055;-84
2021/01/08 01:50:54;;;;;;;14.95;7.53;;;;;;;1.81;83.43;100045.31;5009993;28;20051;-84
2021/01/08 01:53:21;;;;;;;14.40;7.70;;;;;;;1.77;83.90;100041.88;5009149;28;20050;-83
2021/01/08 01:55:48;;;;;;;16.35;8.45;;;;;;;1.73;84.01;100052.44;5011489;28;20058;-83
2021/01/08 01:58:16;;;;;;;15.70;8.20;;;;;;;1.68;84.10;100052.50;5004584;28;20053;-83
2021/01/08 02:00:42;;;;;;;14.25;8.02;;;;;;;1.65;84.84;100057.75;5008572;28;20058;-83
2021/01/08 02:03:44;;;;;;;16.20;8.02;;;;;;;1.64;85.20;100056.03;5000719;28;20052;-84
2021/01/08 02:06:13;;;;;;;15.75;8.05;;;;;;;1.69;85.03;100059.44;4989202;28;20505;-84
2021/01/08 02:08:44;;;;;;;14.35;7.85;;;;;;;1.69;85.08;100056.84;4999581;28;20060;-84
2021/01/08 02:11:13;;;;;;;16.25;8.32;;;;;;;1.71;85.57;100056.81;5005992;28;20068;-84
2021/01/08 02:13:50;;;;;;;15.20;8.60;;;;;;;1.70;85.82;100057.69;5012472;28;20098;-84
2021/01/08 02:16:18;;;;;;;17.30;8.18;;;;;;;1.64;85.37;100058.63;5025908;28;20077;-84
2021/01/08 02:18:47;;;;;;;15.23;9.07;;;;;;;1.58;85.95;100056.13;5014284;28;20042;-84
2021/01/08 02:21:27;;;;;;;16.38;8.40;;;;;;;1.59;85.69;100052.63;5008314;28;20078;-84
2021/01/08 02:24:32;;;;;;;14.52;8.65;;;;;;;1.58;86.41;100055.25;5007321;28;20046;-84
2021/01/08 02:26:59;;;;;;;17.70;9.02;;;;;;;1.54;86.00;100053.59;4976615;28;20124;-84
2021/01/08 02:29:26;;;;;;;15.60;8.32;;;;;;;1.52;86.62;100051.03;4982419;28;20050;-83
2021/01/08 02:31:54;;;;;;;15.82;9.07;;;;;;;1.54;86.66;100049.25;5011991;28;20060;-83
2021/01/08 02:34:24;;;;;;;16.90;9.20;;;;;;;1.49;87.34;100047.59;5014271;28;20057;-82
2021/01/08 02:36:52;;;;;;;17.38;9.07;;;;;;;1.47;87.14;100052.81;5010317;28;20053;-83
2021/01/08 02:39:23;;;;;;;16.35;9.27;;;;;;;1.45;87.31;100054.59;4995366;28;20058;-83
2021/01/08 02:41:53;;;;;;;14.95;8.55;;;;;;;1.43;87.09;100045.91;5006902;28;20074;-84
2021/01/08 02:44:22;;;;;;;16.52;9.32;;;;;;;1.38;88.04;100047.75;4999115;28;20080;-85
2021/01/08 02:46:49;;;;;;;18.17;9.52;;;;;;;1.37;87.98;100044.28;4998006;28;20309;-85
2021/01/08 02:49:17;;;;;;;18.20;9.98;;;;;;;1.36;88.25;100044.31;4984902;28;20046;-84
2021/01/08 02:51:43;;;;;;;17.90;9.70;;;;;;;1.39;88.65;100055.56;4996646;28;20094;-84
2021/01/08 02:54:12;;;;;;;18.00;10.55;;;;;;;1.36;88.65;100039.97;4999581;28;20043;-84
2021/01/08 02:56:50;;;;;;;17.42;9.45;;;;;;;1.43;88.61;100053.75;4991601;28;20049;-84
2021/01/08 02:59:16;;;;;;;20.50;10.07;;;;;;;1.47;88.99;100046.75;4996639;28;20043;-83
2021/01/08 03:01:44;;;;;;;17.15;9.60;;;;;;;1.49;89.05;100053.66;5000037;28;20324;-84
2021/01/08 03:04:11;;;;;;;23.27;11.40;;;;;;;1.47;88.77;100050.22;5000191;28;20051;-84
2021/01/08 03:06:43;;;;;;;18.67;10.43;;;;;;;1.47;88.57;100042.38;4998907;28;20114;-83
2021/01/08 03:09:10;;;;;;;18.83;10.38;;;;;;;1.41;88.74;100032.06;5014682;28;20054;-83
2021/01/08 03:11:37;;;;;;;17.35;9.88;;;;;;;1.47;88.60;100041.53;5026586;28;20062;-83
2021/01/08 03:14:04;;;;;;;18.85;10.13;;;;;;;1.42;88.67;100044.19;5008846;28;20057;-83
2021/01/08 03:16:31;;;;;;;17.90;10.40;;;;;;;1.45;88.64;100038.94;5005460;28;20078;-83
2021/01/08 03:18:58;;;;;;;19.02;10.32;;;;;;;1.50;88.48;100034.53;5006767;28;20484;-83
2021/01/08 03:21:24;;;;;;;19.02;10.35;;;;;;;1.51;88.25;100032.78;5002674;28;20046;-83
2021/01/08 03:23:50;;;;;;;19.38;11.18;;;;;;;1.46;88.68;100037.19;5007122;28;20038;-83
2021/01/08 03:26:18;;;;;;;18.05;10.30;;;;;;;1.43;88.74;100032.88;5011678;28;20051;-83
2021/01/08 03:28:45;;;;;;;18.88;10.75;;;;;;;1.48;89.13;100032.81;5006401;28;20059;-83
2021/01/08 03:31:12;;;;;;;17.73;10.45;;;;;;;1.50;88.31;100025.81;4997003;28;20049;-84
2021/01/08 03:33:38;;;;;;;21.27;11.20;;;;;;;1.48;87.74;100028.47;5002318;28;20050;-84
2021/01/08 03:36:06;;;;;;;17.95;10.68;;;;;;;1.46;88.64;100025.00;4997727;28;20089;-84
2021/01/08 03:38:32;;;;;;;19.30;11.13;;;;;;;1.45;88.94;100033.72;4998577;28;20050;-84
2021/01/08 03:40:59;;;;;;;19.90;10.75;;;;;;;1.44;89.34;100028.53;5003295;28;20054;-84
2021/01/08 03:43:26;;;;;;;20.08;11.25;;;;;;;1.41;89.50;100024.25;4988575;28;20054;-83
2021/01/08 03:45:52;;;;;;;22.92;12.07;;;;;;;1.37;89.51;100026.03;4989028;28;20061;-83
2021/01/08 03:48:19;;;;;;;21.70;11.70;;;;;;;1.41;89.57;100021.63;4985172;28;20272;-83
2021/01/08 03:50:45;;;;;;;19.45;10.95;;;;;;;1.39;89.08;100020.78;4988226;28;20053;-83
2021/01/08 03:53:12;;;;;;;20.70;11.63;;;;;;;1.39;89.21;100023.41;5006752;28;20114;-83
2021/01/08 03:55:38;;;;;;;20.17;11.85;;;;;;;1.36;89.63;100023.44;5016528;28;20137;-84
2021/01/08 03:58:05;;;;;;;21.00;11.00;;;;;;;1.38;89.58;100030.38;5013227;28;20038;-83
2021/01/08 04:00:31;;;;;;;21.70;11.68;;;;;;;1.42;90.04;100012.88;5014411;28;20033;-83
2021/01/08 04:02:57;;;;;;;20.60;11.38;;;;;;;1.47;89.59;100024.13;5013365;28;20046;-84
2021/01/08 04:05:24;;;;;;;18.08;11.18;;;;;;;1.47;89.39;100025.88;5015252;28;20082;-83
2021/01/08 04:07:50;;;;;;;19.50;11.02;;;;;;;1.47;89.03;100018.91;5000226;28;20752;-83
2021/01/08 04:10:17;;;;;;;20.75;11.65;;;;;;;1.48;89.16;100012.81;4997326;28;20049;-83
2021/01/08 04:12:43;;;;;;;19.48;11.10;;;;;;;1.46;89.28;100017.19;4992623;28;20039;-84
2021/01/08 04:15:09;;;;;;;19.40;10.85;;;;;;;1.42;89.27;100012.06;5001426;28;20069;-84
2021/01/08 04:17:36;;;;;;;19.73;11.50;;;;;;;1.41;89.70;100003.38;5020758;28;20057;-84
2021/01/08 04:20:03;;;;;;;20.00;11.63;;;;;;;1.40;89.54;100007.72;5010367;28;20093;-85
2021/01/08 04:22:29;;;;;;;18.98;10.75;;;;;;;1.32;89.57;100004.38;5000672;28;20068;-84
2021/01/08 04:24:56;;;;;;;20.30;11.32;;;;;;;1.39;90.00;100005.13;5007450;28;20051;-83
2021/01/08 04:27:22;;;;;;;19.90;10.80;;;;;;;1.42;90.02;100002.44;5012890;28;20393;-84
2021/01/08 04:29:51;;;;;;;19.88;10.68;;;;;;;1.43;89.48;100006.78;4996980;28;20042;-84
2021/01/08 04:32:17;;;;;;;17.73;10.10;;;;;;;1.43;89.58;100004.19;4999918;28;20046;-84
2021/01/08 04:34:44;;;;;;;18.65;11.32;;;;;;;1.48;89.36;100006.72;5006639;28;20034;-83
2021/01/08 04:37:10;;;;;;;17.88;10.40;;;;;;;1.48;88.97;99996.28;5001945;28;20042;-84
2021/01/08 04:39:36;;;;;;;16.77;10.07;;;;;;;1.56;89.28;99999.66;4998789;28;20450;-84
2021/01/08 04:42:05;;;;;;;16.73;10.55;;;;;;;1.60;88.56;100001.28;4992717;28;20086;-84
2021/01/08 04:44:34;;;;;;;;;;;;;;;1.62;88.42;100000.38;5005856;28;20107;-84
2021/01/08 04:47:02;;;;;;;17.08;9.88;;;;;;;1.61;88.09;99995.19;5002628;28;19969;-83
2021/01/08 04:49:30;;;;;;;16.88;9.68;;;;;;;1.67;88.49;100005.53;5016937;28;20053;-84
2021/01/08 04:51:56;;;;;;;17.02;10.13;;;;;;;1.72;88.28;100001.97;5010278;28;20038;-83
2021/01/08 04:54:23;;;;;;;20.23;9.35;;;;;;;1.79;88.25;100007.06;5017819;28;20061;-83
2021/01/08 04:56:56;;;;;;;17.48;10.15;;;;;;;1.72;88.31;100007.19;5007085;28;20042;-83
2021/01/08 04:59:25;;;;;;;18.10;10.77;;;;;;;1.73;87.99;100008.88;5016335;28;20081;-83
2021/01/08 05:01:52;;;;;;;20.00;10.30;;;;;;;1.74;88.42;100013.22;5014643;28;20034;-83
2021/01/08 05:04:20;;;;;;;18.50;10.73;;;;;;;1.72;88.57;100007.19;5015682;28;20061;-84
2021/01/08 05:06:47;;;;;;;18.05;11.02;;;;;;;1.63;88.23;100002.09;5013190;28;20033;-84
2021/01/08 05:09:14;;;;;;;18.88;11.23;;;;;;;1.65;88.70;99997.72;4994137;28;20061;-84
2021/01/08 05:11:45;;;;;;;17.15;11.00;;;;;;;1.62;88.86;100003.00;5017104;28;20051;-85
2021/01/08 05:14:15;;;;;;;22.48;11.77;;;;;;;1.62;89.20;100004.75;5008640;28;20034;-84
2021/01/08 05:16:41;;;;;;;20.27;11.90;;;;;;;1.62;89.33;100009.97;5003836;28;20057;-84
2021/01/08 05:19:08;;;;;;;19.63;11.63;;;;;;;1.61;90.02;100011.72;5011169;28;20039;-83
2021/01/08 05:21:35;;;;;;;19.13;11.55;;;;;;;1.57;89.88;100010.06;5008654;28;20034;-83
2021/01/08 05:24:03;;;;;;;18.85;11.88;;;;;;;1.54;90.16;100007.50;5019941;28;20040;-82
2021/01/08 05:26:30;;;;;;;18.92;11.63;;;;;;;1.55;90.11;100003.13;5011313;28;20046;-82
2021/01/08 05:28:59;;;;;;;23.27;11.90;;;;;;;1.57;90.49;100012.66;5015229;28;20038;-82
2021/01/08 05:31:30;;;;;;;19.48;12.02;;;;;;;1.55;90.79;100004.00;5003010;28;20031;-82
2021/01/08 05:33:57;;;;;;;20.92;11.70;;;;;;;1.57;90.69;100002.22;5016554;28;20068;-82
2021/01/08 05:36:25;;;;;;;23.17;11.68;;;;;;;1.52;89.65;100001.44;5016956;28;20034;-83
2021/01/08 05:38:53;;;;;;;21.77;12.23;;;;;;;1.49;90.56;100004.09;5002901;28;20050;-84
2021/01/08 05:41:22;;;;;;;19.98;12.27;;;;;;;1.46;91.30;100011.97;5004012;28;20050;-84
2021/01/08 05:43:50;;;;;;;21.27;12.45;;;;;;;1.38;91.44;99996.44;5008467;28;20060;-84
2021/01/08 05:46:19;;;;;;;19.85;11.23;;;;;;;1.39;90.89;100007.75;5008944;28;20050;-85
2021/01/08 05:48:58;;;;;;;21.48;12.10;;;;;;;1.37;91.59;99999.09;5011362;28;20084;-84
2021/01/08 05:51:28;;;;;;;21.70;11.88;;;;;;;1.37;91.98;100004.28;5008581;28;20493;-84
2021/01/08 05:53:59;;;;;;;23.35;12.48;;;;;;;1.37;91.97;100006.91;5019323;28;20102;-84
2021/01/08 05:56:26;;;;;;;20.80;12.35;;;;;;;1.38;92.25;100014.72;5014931;28;20054;-84
2021/01/08 05:58:53;;;;;;;23.85;12.48;;;;;;;1.43;92.17;100012.00;5009178;28;20064;-85
2021/01/08 06:01:19;;;;;;;23.33;13.68;;;;;;;1.41;92.08;100011.19;5004210;28;20054;-84
2021/01/08 06:03:46;;;;;;;23.23;13.50;;;;;;;1.37;92.75;100017.34;4992048;28;20058;-84
2021/01/08 06:06:13;;;;;;;21.98;12.40;;;;;;;1.36;93.05;100019.09;5006616;28;20058;-84
2021/01/08 06:08:47;;;;;;;20.83;11.95;;;;;;;1.44;92.91;100026.78;4987006;28;20437;-84
2021/01/08 06:11:24;;;;;;;21.50;11.60;;;;;;;1.43;92.92;100025.06;5005987;28;20104;-84
2021/01/08 06:13:53;;;;;;;22.90;12.07;;;;;;;1.52;92.19;100019.72;5003631;28;20050;-83
2021/01/08 06:16:22;;;;;;;19.10;11.68;;;;;;;1.59;91.67;100023.06;5006347;28;20386;-84
2021/01/08 06:18:57;;;;;;;20.75;12.25;;;;;;;1.60;91.46;100025.66;4997891;28;20051;-84
2021/01/08 06:21:38;;;;;;;18.75;10.95;;;;;;;1.61;92.01;100029.97;4995443;28;20058;-84
2021/01/08 06:24:13;;;;;;;19.67;10.70;;;;;;;1.61;91.53;100029.13;5002314;28;20081;-84
2021/01/08 06:26:40;;;;;;;15.32;9.88;;;;;;;1.67;91.59;100029.03;5000668;28;20060;-84
2021/01/08 06:29:18;;;;;;;20.40;10.38;;;;;;;1.72;90.51;100033.28;4997400;28;20141;-83
2021/01/08 06:31:50;;;;;;;17.15;10.00;;;;;;;1.65;90.41;100030.78;4997288;28;20054;-83
2021/01/08 06:34:28;;;;;;;19.52;11.05;;;;;;;1.55;91.13;100021.41;4999132;28;20082;-83
2021/01/08 06:37:09;;;;;;;15.07;9.88;;;;;;;1.57;91.38;100027.47;4993097;28;20080;-83
2021/01/08 06:39:44;;;;;;;18.30;10.93;;;;;;;1.56;92.13;100034.44;4993672;28;20477;-83
2021/01/08 06:42:24;;;;;;;16.92;9.95;;;;;;;1.59;91.84;100041.31;5008960;28;20141;-84
2021/01/08 06:44:54;;;;;;;13.63;9.18;;;;;;;1.58;92.19;100035.25;5009806;28;20060;-85
2021/01/08 06:47:22;;;;;;;14.57;9.68;;;;;;;1.59;92.15;100034.34;5013513;28;20074;-85
2021/01/08 06:49:53;;;;;;;16.00;9.52;;;;;;;1.64;92.16;100040.38;5010247;28;20046;-85
2021/01/08 06:52:23;;;;;;;16.15;9.18;;;;;;;1.63;91.76;100036.03;5008487;28;20319;-84
2021/01/08 06:54:54;;;;;;;14.13;9.10;;;;;;;1.66;91.14;100035.13;5011360;28;20057;-84
2021/01/08 06:57:23;;;;;;;17.75;9.38;;;;;;;1.60;91.22;100032.59;5015278;28;20057;-85
2021/01/08 07:00:01;;;;;;;13.27;8.57;;;;;;;1.68;91.76;100044.66;5008454;28;20046;-84
2021/01/08 07:02:31;;;;;;;14.73;9.48;;;;;;;1.71;91.76;100034.19;5009042;28;20054;-84
2021/01/08 07:05:00;;;;;;;14.77;9.23;;;;;;;1.72;91.14;100048.94;5009256;28;20058;-85
2021/01/08 07:07:30;;;;;;;13.55;8.50;;;;;;;1.70;91.37;100044.66;5013606;28;20022;-85
2021/01/08 07:09:56;;;;;;;14.52;8.65;;;;;;;1.73;91.59;100055.03;5029709;28;20026;-85
2021/01/08 07:12:26;;;;;;;14.63;9.13;;;;;;;1.72;92.21;100056.78;5021276;28;20054;-85
2021/01/08 07:14:54;;;;;;;12.48;8.65;;;;;;;1.77;91.78;100051.47;5007756;28;20067;-85
2021/01/08 07:17:31;;;;;;;15.10;8.93;;;;;;;1.75;91.96;100058.47;5012281;28;20054;-85
2021/01/08 07:20:02;;;;;;;14.75;7.72;;;;;;;1.82;91.35;100060.09;5001429;28;20046;-85
2021/01/08 07:22:35;;;;;;;17.10;9.63;;;;;;;2.06;94.76;100059.66;5003697;28;20066;-85
2021/01/08 07:25:05;;;;;;;16.77;9.52;;;;;;;2.21;95.37;100063.75;5019644;28;20073;-85
2021/01/08 07:27:34;;;;;;;13.75;9.00;;;;;;;2.16;93.09;100060.38;5014606;28;20062;-84
2021/01/08 07:30:05;;;;;;;14.40;8.63;;;;;;;2.12;90.95;100061.31;5018760;28;20115;-84
2021/01/08 07:32:36;;;;;;;15.55;9.32;;;;;;;2.07;90.69;100071.81;5014181;28;20105;-83
2021/01/08 07:35:32;;;;;;;15.13;8.88;;;;;;;2.05;90.86;100073.59;5026587;28;20072;-84
2021/01/08 07:38:16;;;;;;;15.98;9.23;;;;;;;2.00;90.65;100082.44;5017180;28;20034;-82
2021/01/08 07:40:56;;;;;;;15.73;9.65;;;;;;;1.97;91.07;100088.56;5017042;28;20050;-82
2021/01/08 07:43:34;;;;;;;14.45;9.50;;;;;;;1.98;91.57;100084.19;5018299;28;20030;-82
2021/01/08 07:46:02;;;;;;;16.20;9.05;;;;;;;1.99;91.17;100093.75;5008455;28;20070;-83
2021/01/08 07:48:31;;;;;;;17.23;9.57;;;;;;;2.00;92.18;100093.72;5017000;28;20029;-84
2021/01/08 07:51:11;;;;;;;16.60;9.70;;;;;;;2.06;90.96;100105.81;5004897;28;20059;-83
2021/01/08 07:53:40;;;;;;;15.75;9.55;;;;;;;2.08;91.76;100104.88;5021532;28;20110;-83
2021/01/08 07:56:10;;;;;;;13.07;8.98;;;;;;;2.07;91.11;100095.34;5016835;28;20046;-83
2021/01/08 07:58:37;;;;;;;14.20;8.30;;;;;;;2.06;91.13;100100.56;5009431;28;20129;-83
2021/01/08 08:01:08;;;;;;;14.50;9.20;;;;;;;2.13;91.80;100106.56;5015988;28;20098;-83
2021/01/08 08:03:38;;;;;;;17.48;9.02;;;;;;;2.16;91.07;100107.38;5023053;28;20062;-82
2021/01/08 08:06:07;;;;;;;15.40;10.02;;;;;;;2.22;90.85;100107.25;5006442;28;20055;-83
2021/01/08 08:08:41;;;;;;;14.30;9.70;;;;;;;2.29;90.13;100118.47;5014559;28;20050;-83
2021/01/08 08:11:24;;;;;;;15.48;9.13;;;;;;;2.34;89.86;100122.75;5010307;28;20060;-83
2021/01/08 08:13:50;;;;;;;14.95;8.63;;;;;;;2.36;90.05;100123.56;4997689;28;20049;-83
2021/01/08 08:16:17;;;;;;;13.43;9.20;;;;;;;2.40;90.32;100126.97;5000095;28;20052;-83
2021/01/08 08:18:53;;;;;;;18.73;9.60;;;;;;;2.51;90.17;100129.41;5000660;28;20049;-83
2021/01/08 08:21:21;;;;;;;13.10;9.35;;;;;;;2.60;89.51;100137.06;5000469;28;20069;-83
2021/01/08 08:23:56;;;;;;;15.02;9.63;;;;;;;2.65;89.12;100138.72;5010780;28;20042;-83
2021/01/08 08:26:24;;;;;;;14.20;8.85;;;;;;;2.71;87.97;100133.34;5017399;28;20044;-83
2021/01/08 08:29:00;;;;;;;14.60;8.95;;;;;;;2.67;88.14;100144.78;5012370;28;20042;-83
2021/01/08 08:31:37;;;;;;;11.75;8.60;;;;;;;2.73;88.04;100156.88;5013126;28;20050;-84
2021/01/08 08:34:14;;;;;;;11.82;8.20;;;;;;;2.69;87.79;100158.66;5006673;28;20077;-84
2021/01/08 08:36:42;;;;;;;14.18;8.30;;;;;;;2.76;86.95;100167.28;4997167;28;20054;-84
2021/01/08 08:39:14;;;;;;;12.73;8.07;;;;;;;2.77;87.33;100158.53;5001300;28;20081;-83
2021/01/08 08:41:46;;;;;;;11.02;8.35;;;;;;;2.78;87.05;100168.09;5012009;28;20046;-82
2021/01/08 08:44:18;;;;;;;13.63;8.80;;;;;;;2.81;87.70;100170.66;5009889;28;20051;-82
2021/01/08 08:46:55;;;;;;;14.57;9.35;;;;;;;2.89;86.97;100179.22;5016690;28;20170;-82
2021/01/08 08:49:30;;;;;;;13.98;8.00;;;;;;;2.87;86.31;100170.53;5008725;28;20085;-82
2021/01/08 08:51:57;;;;;;;12.63;7.68;;;;;;;2.88;86.47;100172.25;5003301;28;20069;-84
2021/01/08 08:54:25;;;;;;;12.95;8.43;;;;;;;2.88;87.33;100180.09;4998259;28;20054;-82
2021/01/08 08:57:02;;;;;;;14.23;8.45;;;;;;;2.91;86.75;100182.66;4999737;28;20085;-82
2021/01/08 08:59:46;;;;;;;13.90;8.90;;;;;;;2.93;87.06;100186.13;5008260;28;20373;-82
2021/01/08 09:02:15;;;;;;;14.63;9.25;;;;;;;3.02;87.01;100183.31;4998412;28;20096;-81
2021/01/08 09:04:59;;;;;;;12.20;8.65;;;;;;;3.01;86.63;100181.59;5013140;28;20039;-82
2021/01/08 09:07:52;;;;;;;14.63;9.52;;;;;;;2.95;86.94;100170.41;5009171;28;20043;-84
2021/01/08 09:10:22;;;;;;;10.85;7.63;;;;;;;3.14;86.64;100190.94;5003863;28;20151;-83
2021/01/08 09:13:08;;;;;;;17.90;8.43;;;;;;;3.19;84.60;100188.22;5013538;28;20070;-83
2021/01/08 09:15:56;;;;;;;9.55;7.10;;;;;;;3.23;85.54;100189.88;5026026;28;20053;-85
2021/01/08 09:18:50;;;;;;;13.85;8.65;;;;;;;3.27;85.10;100194.16;5001620;28;20569;-85
2021/01/08 09:21:27;;;;;;;14.43;8.43;;;;;;;3.29;85.29;100195.00;4996337;28;20050;-85
2021/01/08 09:23:58;;;;;;;18.58;11.77;;;;;;;3.33;84.41;100195.78;5003555;28;20104;-84
2021/01/08 09:26:30;;;;;;;15.45;9.35;;;;;;;3.30;84.35;100193.25;5005498;28;20050;-84
2021/01/08 09:28:57;;;;;;;11.32;8.25;;;;;;;3.26;84.76;100202.03;5010267;28;20042;-86
2021/01/08 09:31:44;;;;;;;12.20;8.35;;;;;;;3.34;85.18;100205.34;5004032;28;20054;-82
2021/01/08 09:34:17;;;;;;;10.95;7.72;;;;;;;3.40;84.14;100207.84;4995960;28;20051;-83
2021/01/08 09:36:47;;;;;;;12.27;7.80;;;;;;;3.41;84.00;100204.34;4991153;28;20050;-84
2021/01/08 09:39:14;;;;;;;11.77;7.10;;;;;;;3.46;83.65;100208.56;4993249;28;20124;-84
2021/01/08 09:41:42;;;;;;;15.50;7.25;;;;;;;3.43;83.11;100205.19;4994936;28;20417;-81
2021/01/08 09:44:11;;;;;;;11.32;6.75;;;;;;;3.43;83.51;100207.78;5002117;28;20061;-85
2021/01/08 09:46:59;;;;;;;11.68;6.97;;;;;;;3.48;82.35;100205.91;4999075;28;20042;-86
2021/01/08 09:49:40;;;;;;;12.38;6.90;;;;;;;3.46;82.70;100205.13;4997994;28;20077;-85
2021/01/08 09:52:09;;;;;;;12.10;7.30;;;;;;;3.45;82.59;100209.50;5006424;28;20045;-84
2021/01/08 09:54:50;;;;;;;10.80;7.20;;;;;;;3.44;82.90;100217.38;5008183;28;20042;-84
2021/01/08 09:57:28;;;;;;;9.85;6.70;;;;;;;3.42;82.63;100219.16;4997887;28;20056;-84
2021/01/08 10:00:09;;;;;;;9.70;6.40;;;;;;;3.41;83.37;100223.53;4987850;28;20073;-84
2021/01/08 10:02:54;;;;;;;9.88;6.72;;;;;;;3.46;82.96;100213.81;4996517;28;20054;-84
2021/01/08 10:05:33;;;;;;;11.60;7.22;;;;;;;3.51;83.19;100226.81;4992356;28;20058;-83
2021/01/08 10:08:04;;;;;;;8.88;6.18;;;;;;;3.56;82.37;100213.63;4991681;28;20058;-83
2021/01/08 10:10:37;;;;;;;8.57;6.50;;;;;;;3.58;81.43;100217.94;5002855;28;20143;-83
2021/01/08 10:13:13;;;;;;;8.10;6.40;;;;;;;3.61;81.78;100219.63;5009910;28;20055;-84
2021/01/08 10:15:47;;;;;;;9.57;6.82;;;;;;;3.63;81.29;100226.53;4999141;28;20058;-86
2021/01/08 10:18:20;;;;;;;11.32;6.03;;;;;;;3.68;81.36;100223.84;4992859;28;20469;-85
2021/01/08 10:20:55;;;;;;;8.35;6.22;;;;;;;3.66;81.22;100225.63;5004764;28;20046;-82
2021/01/08 10:23:26;;;;;;;9.60;6.63;;;;;;;3.66;81.78;100221.25;5004011;28;20066;-85
2021/01/08 10:25:54;;;;;;;9.73;6.82;;;;;;;3.67;80.78;100219.50;5003196;28;20054;-84
2021/01/08 10:28:25;;;;;;;9.80;6.63;;;;;;;3.70;81.67;100211.56;5022440;28;20061;-85
2021/01/08 10:30:54;;;;;;;9.10;6.90;;;;;;;3.71;81.55;100226.38;5031742;28;20061;-85
2021/01/08 10:33:22;;;;;;;8.50;6.80;;;;;;;3.71;81.94;100222.00;5008546;28;20058;-84
2021/01/08 10:35:54;;;;;;;8.35;6.50;;;;;;;3.73;81.72;100215.00;5004527;28;20121;-82
2021/01/08 10:38:22;;;;;;;9.52;6.53;;;;;;;3.77;80.84;100224.50;5015799;28;20077;-84
2021/01/08 10:40:49;;;;;;;7.70;6.22;;;;;;;3.78;81.02;100218.34;5001367;28;20128;-84
2021/01/08 10:43:16;;;;;;;8.93;5.90;;;;;;;3.78;80.79;100226.22;5002309;28;20061;-86
2021/01/08 10:45:47;;;;;;;8.00;5.75;;;;;;;3.74;80.61;100224.56;4995654;28;20054;-85
2021/01/08 10:48:15;;;;;;;9.18;5.75;;;;;;;3.75;80.56;100223.69;5008334;28;20062;-85
2021/01/08 10:50:43;;;;;;;7.53;5.68;;;;;;;3.76;81.32;100221.94;4999003;28;20051;-85
2021/01/08 10:53:09;;;;;;;7.05;5.90;;;;;;;3.77;81.43;100228.88;5013864;28;20898;-84
2021/01/08 10:55:44;;;;;;;5.78;4.35;;;;;;;3.79;79.84;100224.44;4993478;28;20482;-84
2021/01/08 10:58:15;;;;;;;6.13;4.57;;;;;;;3.66;79.88;100216.00;4988866;28;20078;-84
2021/01/08 11:00:45;;;;;;;6.70;5.03;;;;;;;3.70;80.94;100233.38;4991540;28;20046;-84
2021/01/08 11:03:13;;;;;;;;;;;;;;;3.71;79.94;100224.63;4988902;28;20050;-83
2021/01/08 11:05:43;;;;;;;6.18;4.75;;;;;;;3.78;79.91;100226.22;4998007;28;19925;-83
2021/01/08 11:08:10;;;;;;;5.95;4.55;;;;;;;3.79;79.92;100229.69;4998326;28;20057;-84
2021/01/08 11:10:40;;;;;;;5.35;4.13;;;;;;;3.83;79.66;100223.50;5007718;28;20114;-83
2021/01/08 11:13:07;;;;;;;6.22;4.32;;;;;;;3.87;79.18;100231.25;4999117;28;20062;-83
2021/01/08 11:15:35;;;;;;;6.93;4.28;;;;;;;3.89;78.87;100223.38;4994518;28;20062;-83
2021/01/08 11:18:03;;;;;;;7.78;4.90;;;;;;;3.95;79.36;100230.22;4992087;28;20457;-84
2021/01/08 11:20:30;;;;;;;5.90;4.90;;;;;;;4.00;78.62;100220.50;5000179;28;20783;-83
2021/01/08 11:23:02;;;;;;;6.10;4.72;;;;;;;4.00;78.30;100217.88;4989733;28;20105;-83
2021/01/08 11:25:28;;;;;;;5.45;4.38;;;;;;;3.96;78.73;100214.47;5011754;28;20046;-86
2021/01/08 11:27:57;;;;;;;5.93;4.72;;;;;;;3.99;78.22;100211.78;5013510;28;20054;-84
2021/01/08 11:30:26;;;;;;;5.13;4.18;;;;;;;4.07;77.86;100217.72;5012004;28;20049;-83
2021/01/08 11:32:57;;;;;;;6.25;4.90;;;;;;;4.09;77.50;100217.69;5023976;28;20034;-86
2021/01/08 11:35:23;;;;;;;5.72;4.60;;;;;;;4.06;77.88;100210.75;5011213;28;20085;-85
2021/01/08 11:37:54;;;;;;;6.38;5.07;;;;;;;4.07;77.96;100211.63;5013350;28;20035;-86